Time;durP1;ratioP1;P1;durP2;ratioP2;P2;SDS_P1;SDS_P2;PMS_P1;PMS_P2;Temp;Humidity;BMP_temperature;BMP_pressure;BME280_temperature;BME280_humidity;BME280_pressure;Samples;Min_cycle;Max_cycle;Signal;HPM_P1;HPM_P2
2023/01/10 00:00:22;;;;;;;18.80;6.27;;;;;;;;;;5112870;28;20289;-77
2023/01/10 00:02:49;;;;;;;17.63;6.70;;;;;;;;;;5112822;28;20193;-78
2023/01/10 00:05:16;;;;;;;20.87;6.87;;;;;;;;;;5112185;28;20222;-78
2023/01/10 00:07:43;;;;;;;18.37;6.60;;;;;;;;;;5112987;28;20197;-77
2023/01/10 00:10:12;;;;;;;21.10;6.50;;;;;;;;;;5112098;28;20635;-77
2023/01/10 00:15:26;;;;;;;20.23;6.93;;;;;;;;;;5112711;28;20801;-78
2023/01/10 00:17:53;;;;;;;21.57;6.27;;;;;;;;;;5112482;28;20231;-77
2023/01/10 00:20:20;;;;;;;18.70;6.30;;;;;;;;;;5112425;28;20284;-77
2023/01/10 00:22:49;;;;;;;20.93;5.53;;;;;;;;;;5112369;28;20639;-78
2023/01/10 00:25:18;;;;;;;14.57;4.97;;;;;;;;;;5112333;28;20229;-77
2023/01/10 00:27:54;;;;;;;19.67;5.53;;;;;;;;;;5112211;28;20205;-78
2023/01/10 00:30:21;;;;;;;17.07;5.37;;;;;;;;;;5111979;28;20204;-78
2023/01/10 00:32:49;;;;;;;22.47;5.27;;;;;;;;;;5111905;28;20205;-77
2023/01/10 00:35:16;;;;;;;16.03;4.60;;;;;;;;;;5112315;28;20260;-78
2023/01/10 00:37:43;;;;;;;18.03;4.60;;;;;;;;;;5112040;28;20194;-78
2023/01/10 00:40:12;;;;;;;23.67;4.87;;;;;;;;;;5112343;28;20633;-77
2023/01/10 00:45:26;;;;;;;16.97;4.50;;;;;;;;;;5112101;28;20204;-78
2023/01/10 00:47:53;;;;;;;16.83;4.37;;;;;;;;;;5111313;28;20709;-77
2023/01/10 00:50:20;;;;;;;14.63;3.80;;;;;;;;;;5111799;28;20213;-79
2023/01/10 00:52:47;;;;;;;12.87;3.87;;;;;;;;;;5111559;28;20258;-78
2023/01/10 00:55:15;;;;;;;15.30;3.80;;;;;;;;;;5112064;28;20217;-78
2023/01/10 00:57:42;;;;;;;14.03;3.77;;;;;;;;;;5112265;28;20217;-78
2023/01/10 01:00:11;;;;;;;12.80;3.77;;;;;;;;;;5111752;28;20692;-77
2023/01/10 01:02:39;;;;;;;14.17;3.63;;;;;;;;;;5111099;28;20668;-77
2023/01/10 01:05:07;;;;;;;16.63;3.57;;;;;;;;;;5111894;28;20205;-77
2023/01/10 01:07:34;;;;;;;17.67;3.27;;;;;;;;;;5111674;28;20292;-78
2023/01/10 01:12:48;;;;;;;16.00;3.57;;;;;;;;;;5104906;28;20204;-77
2023/01/10 01:15:16;;;;;;;13.50;3.10;;;;;;;;;;5111225;28;20193;-77
2023/01/10 01:17:44;;;;;;;12.57;3.23;;;;;;;;;;5111486;28;20243;-77
2023/01/10 01:20:12;;;;;;;18.90;3.53;;;;;;;;;;5111581;28;20657;-78
2023/01/10 01:22:39;;;;;;;18.07;3.77;;;;;;;;;;5111988;28;20229;-78
2023/01/10 01:25:07;;;;;;;9.83;3.23;;;;;;;;;;5111221;28;20721;-77
2023/01/10 01:27:36;;;;;;;14.40;3.53;;;;;;;;;;5111483;28;20232;-78
2023/01/10 01:30:04;;;;;;;17.43;3.10;;;;;;;;;;5111570;28;20196;-77
2023/01/10 01:32:31;;;;;;;12.93;3.33;;;;;;;;;;5111040;28;20288;-77
2023/01/10 01:35:00;;;;;;;12.27;3.23;;;;;;;;;;5111909;28;20326;-78
2023/01/10 01:37:27;;;;;;;13.87;3.10;;;;;;;;;;5111622;28;20256;-78
2023/01/10 01:39:54;;;;;;;10.27;3.30;;;;;;;;;;5111357;28;20273;-78
2023/01/10 01:42:25;;;;;;;11.80;3.23;;;;;;;;;;5111773;28;20606;-78
2023/01/10 01:45:27;;;;;;;14.30;3.30;;;;;;;;;;5110792;28;20202;-78
2023/01/10 01:47:56;;;;;;;18.53;3.33;;;;;;;;;;5110392;28;20812;-78
2023/01/10 01:50:27;;;;;;;16.07;3.60;;;;;;;;;;5111295;28;20759;-78
2023/01/10 01:52:57;;;;;;;12.10;3.00;;;;;;;;;;5112026;28;20237;-77
2023/01/10 01:55:25;;;;;;;12.10;3.50;;;;;;;;;;5111338;28;20262;-77
2023/01/10 01:57:53;;;;;;;13.87;2.80;;;;;;;;;;5110998;28;20288;-77
2023/01/10 02:00:20;;;;;;;8.73;2.73;;;;;;;;;;5111233;28;20263;-78
2023/01/10 02:02:50;;;;;;;14.07;3.40;;;;;;;;;;5111485;28;20280;-78
2023/01/10 02:05:18;;;;;;;9.67;2.70;;;;;;;;;;5113440;28;20231;-77
2023/01/10 02:07:48;;;;;;;9.00;2.80;;;;;;;;;;5109583;28;20237;-76
2023/01/10 02:10:18;;;;;;;16.17;3.00;;;;;;;;;;5107082;28;20201;-77
2023/01/10 02:12:46;;;;;;;11.43;3.00;;;;;;;;;;5115231;28;20669;-77
2023/01/10 02:15:13;;;;;;;10.00;3.30;;;;;;;;;;5114244;28;20236;-78
2023/01/10 02:17:41;;;;;;;17.00;3.20;;;;;;;;;;5114746;28;20622;-78
2023/01/10 02:20:09;;;;;;;15.17;3.20;;;;;;;;;;5115113;28;20240;-78
2023/01/10 02:23:00;;;;;;;10.03;2.73;;;;;;;;;;5115283;28;20665;-77
2023/01/10 02:25:48;;;;;;;11.37;3.03;;;;;;;;;;5114669;28;20229;-76
2023/01/10 02:28:35;;;;;;;15.63;3.30;;;;;;;;;;5108182;28;20194;-77
2023/01/10 02:31:11;;;;;;;13.60;3.20;;;;;;;;;;5114532;28;20285;-78
2023/01/10 02:33:44;;;;;;;15.37;3.20;;;;;;;;;;5114842;28;20617;-78
2023/01/10 02:36:17;;;;;;;13.93;3.20;;;;;;;;;;5114454;28;20846;-78
2023/01/10 02:38:53;;;;;;;12.90;3.07;;;;;;;;;;5114703;28;20238;-78
2023/01/10 02:41:24;;;;;;;12.57;3.13;;;;;;;;;;5114426;28;20293;-77
2023/01/10 02:43:54;;;;;;;13.40;2.87;;;;;;;;;;5113860;28;20229;-77
2023/01/10 02:46:24;;;;;;;16.57;3.30;;;;;;;;;;5114276;28;20232;-77
2023/01/10 02:48:53;;;;;;;13.17;2.67;;;;;;;;;;5114110;28;20257;-77
2023/01/10 02:51:22;;;;;;;9.10;2.73;;;;;;;;;;5114710;28;20229;-77
2023/01/10 02:53:51;;;;;;;12.57;3.30;;;;;;;;;;5114527;28;20217;-78
2023/01/10 02:56:32;;;;;;;8.57;2.57;;;;;;;;;;5114110;28;20657;-78
2023/01/10 02:59:12;;;;;;;15.30;3.17;;;;;;;;;;5113855;28;20189;-77
2023/01/10 03:01:43;;;;;;;12.20;3.07;;;;;;;;;;5114267;28;20202;-77
2023/01/10 03:04:17;;;;;;;16.20;3.37;;;;;;;;;;5113983;28;20234;-78
2023/01/10 03:06:47;;;;;;;16.93;2.83;;;;;;;;;;5114228;28;20229;-77
2023/01/10 03:09:17;;;;;;;19.60;3.40;;;;;;;;;;5113830;28;20217;-76
2023/01/10 03:11:47;;;;;;;12.80;2.70;;;;;;;;;;5113505;28;20221;-77
2023/01/10 03:14:16;;;;;;;12.87;2.90;;;;;;;;;;5114393;28;20228;-77
2023/01/10 03:16:47;;;;;;;12.40;2.63;;;;;;;;;;5113089;28;20225;-77
2023/01/10 03:19:18;;;;;;;8.17;3.00;;;;;;;;;;5113545;28;20189;-78
2023/01/10 03:21:45;;;;;;;17.27;3.37;;;;;;;;;;5113840;28;20229;-77
2023/01/10 03:24:14;;;;;;;16.50;3.30;;;;;;;;;;5113258;28;20235;-77
2023/01/10 03:26:44;;;;;;;15.27;3.43;;;;;;;;;;5112968;28;20213;-78
2023/01/10 03:29:12;;;;;;;22.47;3.47;;;;;;;;;;5113670;28;20615;-78
2023/01/10 03:31:42;;;;;;;18.83;3.13;;;;;;;;;;5111977;28;20229;-78
2023/01/10 03:34:10;;;;;;;16.50;3.33;;;;;;;;;;5112862;28;20215;-77
2023/01/10 03:36:41;;;;;;;20.03;3.87;;;;;;;;;;5113193;28;20308;-77
2023/01/10 03:39:14;;;;;;;19.60;3.00;;;;;;;;;;5113190;28;20204;-77
2023/01/10 03:41:48;;;;;;;19.83;3.33;;;;;;;;;;5112713;28;20745;-78
2023/01/10 03:47:05;;;;;;;14.40;3.33;;;;;;;;;;5113434;28;20267;-79
2023/01/10 03:49:34;;;;;;;15.30;3.10;;;;;;;;;;5113143;28;20267;-79
2023/01/10 03:52:04;;;;;;;13.07;3.00;;;;;;;;;;5113114;28;20284;-79
2023/01/10 03:54:31;;;;;;;16.53;3.20;;;;;;;;;;5112111;28;20236;-79
2023/01/10 03:56:58;;;;;;;13.27;3.03;;;;;;;;;;5112209;28;20676;-79
2023/01/10 03:59:26;;;;;;;13.97;3.30;;;;;;;;;;5112508;28;20225;-79
2023/01/10 04:01:53;;;;;;;17.60;2.93;;;;;;;;;;5112557;28;20190;-78
2023/01/10 04:04:21;;;;;;;20.23;3.33;;;;;;;;;;5113193;28;20229;-79
2023/01/10 04:06:48;;;;;;;20.57;3.20;;;;;;;;;;5112869;28;20233;-78
2023/01/10 04:09:17;;;;;;;15.37;3.30;;;;;;;;;;5112622;28;20191;-79
2023/01/10 04:11:44;;;;;;;15.73;2.77;;;;;;;;;;5111816;28;20621;-79
2023/01/10 04:14:11;;;;;;;15.67;3.37;;;;;;;;;;5112719;28;20194;-80
2023/01/10 04:16:38;;;;;;;16.27;2.87;;;;;;;;;;5112587;28;20312;-79
2023/01/10 04:19:06;;;;;;;19.57;3.40;;;;;;;;;;5112181;28;20737;-78
2023/01/10 04:21:33;;;;;;;21.50;4.00;;;;;;;;;;5112510;28;20201;-79
2023/01/10 04:24:00;;;;;;;16.03;3.20;;;;;;;;;;5112016;28;20190;-79
2023/01/10 04:26:29;;;;;;;16.23;3.43;;;;;;;;;;5111720;28;20198;-79
2023/01/10 04:28:56;;;;;;;16.37;3.43;;;;;;;;;;5111796;28;20237;-78
2023/01/10 04:31:23;;;;;;;19.37;3.50;;;;;;;;;;5111763;28;20212;-79
2023/01/10 04:33:50;;;;;;;21.13;3.27;;;;;;;;;;5112423;28;20201;-79
2023/01/10 04:36:17;;;;;;;23.60;3.97;;;;;;;;;;5112703;28;20221;-80
2023/01/10 04:38:44;;;;;;;21.67;3.70;;;;;;;;;;5112073;28;20229;-80
2023/01/10 04:41:12;;;;;;;19.20;4.00;;;;;;;;;;5111724;28;20236;-79
2023/01/10 04:43:40;;;;;;;19.93;3.50;;;;;;;;;;5112257;28;20217;-79
2023/01/10 04:46:07;;;;;;;26.00;3.80;;;;;;;;;;5112152;28;20636;-80
2023/01/10 04:48:36;;;;;;;16.13;3.03;;;;;;;;;;5112173;28;20289;-79
2023/01/10 04:51:04;;;;;;;19.50;3.23;;;;;;;;;;5111860;28;20255;-79
2023/01/10 04:53:31;;;;;;;15.53;3.17;;;;;;;;;;5111377;28;20247;-79
2023/01/10 04:56:02;;;;;;;18.77;3.13;;;;;;;;;;5112432;28;20228;-79
2023/01/10 04:58:29;;;;;;;18.83;3.30;;;;;;;;;;5111661;28;20231;-78
2023/01/10 05:00:58;;;;;;;19.10;3.13;;;;;;;;;;5111890;28;20676;-79
2023/01/10 05:03:25;;;;;;;18.57;3.40;;;;;;;;;;5112030;28;20197;-79
2023/01/10 05:05:52;;;;;;;22.03;3.60;;;;;;;;;;5111816;28;20292;-78
2023/01/10 05:08:19;;;;;;;16.93;3.50;;;;;;;;;;5111387;28;20248;-79
2023/01/10 05:10:47;;;;;;;16.57;2.83;;;;;;;;;;5112024;28;20197;-79
2023/01/10 05:13:14;;;;;;;23.37;3.37;;;;;;;;;;5111684;28;20201;-79
2023/01/10 05:15:41;;;;;;;18.57;3.37;;;;;;;;;;5111604;28;20236;-79
2023/01/10 05:18:10;;;;;;;17.93;3.23;;;;;;;;;;5111847;28;20320;-78
2023/01/10 05:20:37;;;;;;;16.10;3.70;;;;;;;;;;5111245;28;20227;-79
2023/01/10 05:23:04;;;;;;;20.83;3.70;;;;;;;;;;5111464;28;20232;-79
2023/01/10 05:25:31;;;;;;;18.23;3.57;;;;;;;;;;5111324;28;20671;-80
2023/01/10 05:27:59;;;;;;;14.10;3.30;;;;;;;;;;5111343;28;20202;-79
2023/01/10 05:30:27;;;;;;;13.73;3.60;;;;;;;;;;5111673;28;20667;-78
2023/01/10 05:32:54;;;;;;;18.57;3.10;;;;;;;;;;5111529;28;20273;-79
2023/01/10 05:35:22;;;;;;;13.23;3.00;;;;;;;;;;5111213;28;20240;-79
2023/01/10 05:37:50;;;;;;;13.43;3.13;;;;;;;;;;5110852;28;20848;-79
2023/01/10 05:40:17;;;;;;;16.60;3.40;;;;;;;;;;5115309;28;20251;-78
2023/01/10 05:42:44;;;;;;;19.17;3.20;;;;;;;;;;5115837;28;20254;-79
2023/01/10 05:45:12;;;;;;;17.50;3.10;;;;;;;;;;5115547;28;20289;-79
2023/01/10 05:47:39;;;;;;;13.53;3.10;;;;;;;;;;5115875;28;20312;-78
2023/01/10 05:50:07;;;;;;;14.57;2.67;;;;;;;;;;5115248;28;20240;-79
2023/01/10 05:52:35;;;;;;;15.13;2.83;;;;;;;;;;5114328;28;20213;-79
2023/01/10 05:55:03;;;;;;;19.50;3.67;;;;;;;;;;5115062;28;20288;-80
2023/01/10 05:57:30;;;;;;;11.83;2.90;;;;;;;;;;5115118;28;20229;-79
2023/01/10 05:59:57;;;;;;;21.80;3.10;;;;;;;;;;5114874;28;20217;-79
2023/01/10 06:02:25;;;;;;;17.70;3.33;;;;;;;;;;5114764;28;20199;-79
2023/01/10 06:04:54;;;;;;;20.87;3.13;;;;;;;;;;5115275;28;20672;-77
2023/01/10 06:07:21;;;;;;;15.27;2.80;;;;;;;;;;5114749;28;20198;-77
2023/01/10 06:09:50;;;;;;;15.43;3.13;;;;;;;;;;5114582;28;20225;-77
2023/01/10 06:12:18;;;;;;;14.00;2.87;;;;;;;;;;5115162;28;20221;-77
2023/01/10 06:14:45;;;;;;;19.53;3.50;;;;;;;;;;5113636;28;20201;-77
2023/01/10 06:17:12;;;;;;;16.73;2.83;;;;;;;;;;5114764;28;20249;-78
2023/01/10 06:19:39;;;;;;;14.13;2.90;;;;;;;;;;5113789;28;20281;-77
2023/01/10 06:22:06;;;;;;;8.73;2.03;;;;;;;;;;5113308;28;20717;-76
2023/01/10 06:24:34;;;;;;;16.20;2.30;;;;;;;;;;5105187;28;20225;-77
2023/01/10 06:27:02;;;;;;;15.93;2.43;;;;;;;;;;5099167;28;20230;-77
2023/01/10 06:29:29;;;;;;;10.03;2.20;;;;;;;;;;5099296;28;20230;-76
2023/01/10 06:31:56;;;;;;;11.50;2.80;;;;;;;;;;5100549;28;20244;-76
2023/01/10 06:34:24;;;;;;;13.03;2.53;;;;;;;;;;5114583;28;20277;-77
2023/01/10 06:36:51;;;;;;;11.13;2.30;;;;;;;;;;5113850;28;20228;-77
2023/01/10 06:39:18;;;;;;;10.07;2.30;;;;;;;;;;5114195;28;20221;-77
2023/01/10 06:41:45;;;;;;;15.67;3.30;;;;;;;;;;5113727;28;20219;-78
2023/01/10 06:44:14;;;;;;;12.47;2.93;;;;;;;;;;5112611;28;20208;-78
2023/01/10 06:46:41;;;;;;;9.63;2.30;;;;;;;;;;5107592;28;20209;-78
2023/01/10 06:49:08;;;;;;;13.67;2.73;;;;;;;;;;5112871;28;20260;-76
2023/01/10 06:51:36;;;;;;;14.33;3.30;;;;;;;;;;5111150;28;20225;-75
2023/01/10 06:54:03;;;;;;;11.20;2.70;;;;;;;;;;5102022;28;20198;-78
2023/01/10 06:56:30;;;;;;;12.47;2.70;;;;;;;;;;5102659;28;20226;-78
2023/01/10 06:58:57;;;;;;;10.70;2.70;;;;;;;;;;5109613;28;20248;-78
2023/01/10 07:01:26;;;;;;;11.37;2.83;;;;;;;;;;5103613;28;20218;-74
2023/01/10 07:03:54;;;;;;;14.60;2.87;;;;;;;;;;5101321;28;20193;-78
2023/01/10 07:06:34;;;;;;;11.43;2.77;;;;;;;;;;5104759;28;20281;-78
2023/01/10 07:09:02;;;;;;;11.57;2.80;;;;;;;;;;5104428;28;20203;-76
2023/01/10 07:11:29;;;;;;;14.27;2.70;;;;;;;;;;5103425;28;20240;-77
2023/01/10 07:13:56;;;;;;;13.10;2.80;;;;;;;;;;5105378;28;20220;-77
2023/01/10 07:16:23;;;;;;;8.37;2.70;;;;;;;;;;5113501;28;20288;-80
2023/01/10 07:18:52;;;;;;;9.20;3.30;;;;;;;;;;5113387;28;20659;-79
2023/01/10 07:21:19;;;;;;;10.47;2.63;;;;;;;;;;5113906;28;20581;-78
2023/01/10 07:23:48;;;;;;;8.73;2.70;;;;;;;;;;5113244;28;20271;-79
2023/01/10 07:26:17;;;;;;;8.73;2.43;;;;;;;;;;5113929;28;20194;-77
2023/01/10 07:28:45;;;;;;;9.30;2.60;;;;;;;;;;5113694;28;20204;-78
2023/01/10 07:31:12;;;;;;;12.27;2.90;;;;;;;;;;5113331;28;20221;-79
2023/01/10 07:33:39;;;;;;;6.33;2.23;;;;;;;;;;5112610;28;20229;-79
2023/01/10 07:36:08;;;;;;;10.33;2.80;;;;;;;;;;5113822;28;20193;-77
2023/01/10 07:38:35;;;;;;;11.80;3.13;;;;;;;;;;5113382;28;20253;-77
2023/01/10 07:41:03;;;;;;;10.87;2.80;;;;;;;;;;5108390;28;20198;-78
2023/01/10 07:43:30;;;;;;;11.00;2.77;;;;;;;;;;5092990;28;20237;-77
2023/01/10 07:45:58;;;;;;;9.40;2.60;;;;;;;;;;5104340;28;20624;-77
2023/01/10 07:48:26;;;;;;;7.00;2.80;;;;;;;;;;5111956;28;20231;-77
2023/01/10 07:50:56;;;;;;;6.07;2.70;;;;;;;;;;5106047;28;20686;-77
2023/01/10 07:53:25;;;;;;;7.83;2.77;;;;;;;;;;5108352;28;20239;-77
2023/01/10 07:55:52;;;;;;;12.50;3.17;;;;;;;;;;5112457;28;20232;-78
2023/01/10 07:58:19;;;;;;;8.10;2.57;;;;;;;;;;5109797;28;20274;-79
2023/01/10 08:00:49;;;;;;;8.97;3.00;;;;;;;;;;5092509;28;20230;-78
2023/01/10 08:03:16;;;;;;;7.93;2.50;;;;;;;;;;5091895;28;20194;-79
2023/01/10 08:05:43;;;;;;;8.30;2.97;;;;;;;;;;5092949;28;20192;-79
2023/01/10 08:08:12;;;;;;;8.27;2.70;;;;;;;;;;5092384;28;20194;-79
2023/01/10 08:10:40;;;;;;;7.90;2.63;;;;;;;;;;5092147;28;20233;-78
2023/01/10 08:13:07;;;;;;;5.73;2.47;;;;;;;;;;5092822;28;20226;-77
2023/01/10 08:15:34;;;;;;;7.23;2.70;;;;;;;;;;5092550;28;20220;-78
2023/01/10 08:18:02;;;;;;;6.53;2.47;;;;;;;;;;5092017;28;20272;-77
2023/01/10 08:20:29;;;;;;;5.23;2.80;;;;;;;;;;5092462;28;20221;-77
2023/01/10 08:22:57;;;;;;;7.50;2.90;;;;;;;;;;5092225;28;20235;-76
2023/01/10 08:25:24;;;;;;;4.77;2.87;;;;;;;;;;5092045;28;20201;-79
2023/01/10 08:27:53;;;;;;;6.97;3.30;;;;;;;;;;5102235;28;20296;-79
2023/01/10 08:30:20;;;;;;;12.23;3.03;;;;;;;;;;5112724;28;20633;-77
2023/01/10 08:32:47;;;;;;;8.17;3.40;;;;;;;;;;5112457;28;20281;-77
2023/01/10 08:35:15;;;;;;;8.73;3.17;;;;;;;;;;5112659;28;20231;-80
2023/01/10 08:37:42;;;;;;;12.03;3.43;;;;;;;;;;5112876;28;20232;-76
2023/01/10 08:40:10;;;;;;;8.10;3.20;;;;;;;;;;5112477;28;20282;-77
2023/01/10 08:42:37;;;;;;;9.60;3.50;;;;;;;;;;5111986;28;20199;-77
2023/01/10 08:45:06;;;;;;;6.30;2.87;;;;;;;;;;5112143;28;20199;-79
2023/01/10 08:47:33;;;;;;;8.60;3.60;;;;;;;;;;5111668;28;20755;-79
2023/01/10 08:50:01;;;;;;;6.33;3.43;;;;;;;;;;5112140;28;20673;-80
2023/01/10 08:52:28;;;;;;;6.90;3.50;;;;;;;;;;5112206;28;20194;-77
2023/01/10 08:54:55;;;;;;;5.13;3.03;;;;;;;;;;5112074;28;20285;-77
2023/01/10 08:57:23;;;;;;;5.50;3.47;;;;;;;;;;5112248;28;20730;-77
2023/01/10 08:59:50;;;;;;;4.97;2.53;;;;;;;;;;5111355;28;20262;-77
2023/01/10 09:02:18;;;;;;;4.70;2.87;;;;;;;;;;5112333;28;20225;-77
2023/01/10 09:04:46;;;;;;;4.57;2.87;;;;;;;;;;5112157;28;20214;-76
2023/01/10 09:07:13;;;;;;;6.00;2.93;;;;;;;;;;5112053;28;20243;-77
2023/01/10 09:09:40;;;;;;;7.17;3.57;;;;;;;;;;5112539;28;20207;-77
2023/01/10 09:12:53;;;;;;;6.27;3.20;;;;;;;;;;5112074;28;20199;-77
2023/01/10 09:14:55;;;;;;;5.50;3.17;;;;;;;;;;5110730;28;20208;-76
2023/01/10 09:17:23;;;;;;;4.17;3.47;;;;;;;;;;5111902;28;20201;-77
2023/01/10 09:19:51;;;;;;;6.73;4.27;;;;;;;;;;5111720;28;20232;-77
2023/01/10 09:22:18;;;;;;;7.17;4.33;;;;;;;;;;5112263;28;20606;-78
2023/01/10 09:24:45;;;;;;;7.00;3.63;;;;;;;;;;5111927;28;20301;-76
2023/01/10 09:27:12;;;;;;;6.23;3.83;;;;;;;;;;5111775;28;20292;-76
2023/01/10 09:29:40;;;;;;;7.73;3.97;;;;;;;;;;5111149;28;20194;-77
2023/01/10 09:32:08;;;;;;;7.73;4.37;;;;;;;;;;5111920;28;20319;-77
2023/01/10 09:34:37;;;;;;;9.33;4.57;;;;;;;;;;5111742;28;20200;-77
2023/01/10 09:37:04;;;;;;;8.47;4.53;;;;;;;;;;5111722;28;20200;-77
2023/01/10 09:39:31;;;;;;;9.50;4.83;;;;;;;;;;5111788;28;20315;-77
2023/01/10 09:42:04;;;;;;;7.77;5.23;;;;;;;;;;5111095;28;20225;-80
2023/01/10 09:44:38;;;;;;;8.03;4.77;;;;;;;;;;5111211;28;20289;-77
2023/01/10 09:47:07;;;;;;;8.43;4.73;;;;;;;;;;5111608;28;20687;-77
2023/01/10 09:49:42;;;;;;;8.33;4.70;;;;;;;;;;5111690;28;20293;-78
2023/01/10 09:52:13;;;;;;;6.73;4.40;;;;;;;;;;5111533;28;20220;-78
2023/01/10 09:54:42;;;;;;;7.17;4.60;;;;;;;;;;5111534;28;20226;-78
2023/01/10 09:57:12;;;;;;;6.07;4.20;;;;;;;;;;5111308;28;20232;-79
2023/01/10 09:59:41;;;;;;;6.73;4.77;;;;;;;;;;5111377;28;20665;-78
2023/01/10 10:02:17;;;;;;;9.73;4.70;;;;;;;;;;5111406;28;20221;-78
2023/01/10 10:04:47;;;;;;;7.33;4.30;;;;;;;;;;5111638;28;20277;-77
2023/01/10 10:07:16;;;;;;;8.40;4.70;;;;;;;;;;5111321;28;20762;-78
2023/01/10 10:09:44;;;;;;;9.13;5.07;;;;;;;;;;5111278;28;20305;-77
2023/01/10 10:12:18;;;;;;;9.57;5.10;;;;;;;;;;5111315;28;20233;-76
2023/01/10 10:14:53;;;;;;;9.37;4.93;;;;;;;;;;5111335;28;20217;-78
2023/01/10 10:17:27;;;;;;;10.60;5.70;;;;;;;;;;5111310;28;20232;-78
2023/01/10 10:20:06;;;;;;;8.83;5.33;;;;;;;;;;5111456;28;20621;-78
2023/01/10 10:22:38;;;;;;;10.00;6.37;;;;;;;;;;5111160;28;20242;-78
2023/01/10 10:25:15;;;;;;;10.97;5.80;;;;;;;;;;5111102;28;20289;-77
2023/01/10 10:27:47;;;;;;;14.23;6.43;;;;;;;;;;5114252;28;20284;-78
2023/01/10 10:30:20;;;;;;;14.13;6.10;;;;;;;;;;5115354;28;20622;-78
2023/01/10 10:32:54;;;;;;;13.90;5.97;;;;;;;;;;5115204;28;20197;-78
2023/01/10 10:35:26;;;;;;;14.33;6.40;;;;;;;;;;5114605;28;20669;-77
2023/01/10 10:37:54;;;;;;;16.33;6.63;;;;;;;;;;5114877;28;20625;-78
2023/01/10 10:40:24;;;;;;;14.10;6.43;;;;;;;;;;5114451;28;20757;-77
2023/01/10 10:42:52;;;;;;;16.20;6.60;;;;;;;;;;5114310;28;20238;-78
2023/01/10 10:45:20;;;;;;;15.13;6.23;;;;;;;;;;5114808;28;20198;-78
2023/01/10 10:47:51;;;;;;;16.20;6.37;;;;;;;;;;5114115;28;20720;-78
2023/01/10 10:50:22;;;;;;;16.10;6.60;;;;;;;;;;5114501;28;20567;-78
2023/01/10 10:52:50;;;;;;;13.30;6.57;;;;;;;;;;5114604;28;20240;-78
2023/01/10 10:55:20;;;;;;;16.73;6.83;;;;;;;;;;5114573;28;20229;-77
2023/01/10 10:57:48;;;;;;;19.93;6.43;;;;;;;;;;5114077;28;20193;-78
2023/01/10 11:00:16;;;;;;;15.03;5.57;;;;;;;;;;5113964;28;20263;-78
2023/01/10 11:02:45;;;;;;;21.10;6.77;;;;;;;;;;5114586;28;20250;-77
2023/01/10 11:05:17;;;;;;;18.07;6.43;;;;;;;;;;5114375;28;20270;-78
2023/01/10 11:07:45;;;;;;;20.47;6.30;;;;;;;;;;5114268;28;20284;-78
2023/01/10 11:13:01;;;;;;;19.93;6.50;;;;;;;;;;5114116;28;20696;-77
2023/01/10 11:15:39;;;;;;;21.07;6.27;;;;;;;;;;5114690;28;20194;-78
2023/01/10 11:18:08;;;;;;;19.23;6.00;;;;;;;;;;5114455;28;20201;-78
2023/01/10 11:20:35;;;;;;;19.93;5.53;;;;;;;;;;5114008;28;20229;-77
2023/01/10 11:23:02;;;;;;;23.57;5.57;;;;;;;;;;5113900;28;20194;-77
2023/01/10 11:25:31;;;;;;;23.17;6.00;;;;;;;;;;5113692;28;20217;-78
2023/01/10 11:28:00;;;;;;;21.17;5.67;;;;;;;;;;5113613;28;20198;-78
2023/01/10 11:30:28;;;;;;;18.83;6.00;;;;;;;;;;5114169;28;20202;-78
2023/01/10 11:32:57;;;;;;;23.77;6.30;;;;;;;;;;5113529;28;20242;-78
2023/01/10 11:35:26;;;;;;;26.87;5.33;;;;;;;;;;5113753;28;20229;-78
2023/01/10 11:38:03;;;;;;;24.27;5.47;;;;;;;;;;5113339;28;20190;-78
2023/01/10 11:40:32;;;;;;;18.87;4.57;;;;;;;;;;5112713;28;20735;-78
2023/01/10 11:43:00;;;;;;;24.13;6.20;;;;;;;;;;5113829;28;20225;-78
2023/01/10 11:45:30;;;;;;;30.57;6.30;;;;;;;;;;5113758;28;20190;-78
2023/01/10 11:48:00;;;;;;;23.60;6.17;;;;;;;;;;5112891;28;20249;-78
2023/01/10 11:50:28;;;;;;;24.60;6.33;;;;;;;;;;5113612;28;20225;-78
2023/01/10 11:52:55;;;;;;;29.63;5.80;;;;;;;;;;5113375;28;20224;-78
2023/01/10 11:55:23;;;;;;;17.43;4.77;;;;;;;;;;5112948;28;20665;-78
2023/01/10 11:58:03;;;;;;;25.00;5.60;;;;;;;;;;5113089;28;20217;-78
2023/01/10 12:00:35;;;;;;;22.73;5.13;;;;;;;;;;5113017;28;20642;-78
2023/01/10 12:03:02;;;;;;;23.27;5.20;;;;;;;;;;5113072;28;20273;-77
2023/01/10 12:05:30;;;;;;;30.00;5.53;;;;;;;;;;5113143;28;20198;-78
2023/01/10 12:07:58;;;;;;;25.80;4.83;;;;;;;;;;5112725;28;20226;-78
2023/01/10 12:10:26;;;;;;;30.10;5.80;;;;;;;;;;5112839;28;20703;-78
2023/01/10 12:12:56;;;;;;;24.90;4.57;;;;;;;;;;5113009;28;20725;-79
2023/01/10 12:15:26;;;;;;;26.13;5.13;;;;;;;;;;5113062;28;20294;-77
2023/01/10 12:17:55;;;;;;;32.43;5.63;;;;;;;;;;5112985;28;20189;-77
2023/01/10 12:20:22;;;;;;;29.17;5.67;;;;;;;;;;5112438;28;20328;-77
2023/01/10 12:22:52;;;;;;;28.63;5.43;;;;;;;;;;5112926;28;20198;-77
2023/01/10 12:25:21;;;;;;;23.20;4.47;;;;;;;;;;5112514;28;20233;-78
2023/01/10 12:27:49;;;;;;;27.53;5.20;;;;;;;;;;5112665;28;20228;-78
2023/01/10 12:30:18;;;;;;;22.27;4.23;;;;;;;;;;5112562;28;20225;-78
2023/01/10 12:32:49;;;;;;;26.37;4.13;;;;;;;;;;5112238;28;20229;-78
2023/01/10 12:35:19;;;;;;;19.83;4.50;;;;;;;;;;5112768;28;20243;-77
2023/01/10 12:37:48;;;;;;;18.17;4.13;;;;;;;;;;5111787;28;20221;-78
2023/01/10 12:40:18;;;;;;;22.10;4.00;;;;;;;;;;5112464;28;20320;-78
2023/01/10 12:45:39;;;;;;;30.20;4.93;;;;;;;;;;5112494;28;20204;-78
2023/01/10 12:48:13;;;;;;;24.70;4.57;;;;;;;;;;5111608;28;20276;-77
2023/01/10 12:50:42;;;;;;;19.33;3.73;;;;;;;;;;5112174;28;20226;-77
2023/01/10 12:53:14;;;;;;;23.20;3.80;;;;;;;;;;5111600;28;20232;-78
2023/01/10 12:55:42;;;;;;;27.63;4.90;;;;;;;;;;5111959;28;20752;-78
2023/01/10 12:58:14;;;;;;;30.63;4.20;;;;;;;;;;5112729;28;20232;-78
2023/01/10 13:00:43;;;;;;;23.00;4.17;;;;;;;;;;5112002;28;20226;-78
2023/01/10 13:03:13;;;;;;;24.67;4.23;;;;;;;;;;5112105;28;20226;-78
2023/01/10 13:05:41;;;;;;;28.47;4.90;;;;;;;;;;5111943;28;20667;-78
2023/01/10 13:08:11;;;;;;;27.37;4.10;;;;;;;;;;5111612;28;20301;-78
2023/01/10 13:10:39;;;;;;;27.10;4.37;;;;;;;;;;5112166;28;20243;-78
2023/01/10 13:13:12;;;;;;;21.80;4.20;;;;;;;;;;5111816;28;20674;-78
2023/01/10 13:15:43;;;;;;;21.20;4.33;;;;;;;;;;5112004;28;20225;-79
2023/01/10 13:18:18;;;;;;;25.70;4.53;;;;;;;;;;5112132;28;20293;-77
2023/01/10 13:20:45;;;;;;;24.47;4.20;;;;;;;;;;5111808;28;20235;-78
2023/01/10 13:23:22;;;;;;;24.83;4.10;;;;;;;;;;5111533;28;20243;-77
2023/01/10 13:25:56;;;;;;;21.13;4.20;;;;;;;;;;5112074;28;20284;-78
2023/01/10 13:28:25;;;;;;;22.80;4.40;;;;;;;;;;5111510;28;20730;-78
2023/01/10 13:30:53;;;;;;;23.67;5.17;;;;;;;;;;5111805;28;20197;-78
2023/01/10 13:33:23;;;;;;;24.77;3.97;;;;;;;;;;5111780;28;20254;-78
2023/01/10 13:35:52;;;;;;;21.97;4.10;;;;;;;;;;5111882;28;20213;-78
2023/01/10 13:38:20;;;;;;;23.40;4.70;;;;;;;;;;5111872;28;20236;-78
2023/01/10 13:40:57;;;;;;;21.57;4.60;;;;;;;;;;5111523;28;20259;-78
2023/01/10 13:43:44;;;;;;;22.10;4.20;;;;;;;;;;5111516;28;20244;-78
2023/01/10 13:46:28;;;;;;;29.03;4.77;;;;;;;;;;5009050;28;20201;-78
2023/01/10 13:49:11;;;;;;;23.93;3.97;;;;;;;;;;5008549;28;20795;-79
2023/01/10 13:51:40;;;;;;;21.43;4.07;;;;;;;;;;5006657;28;20653;-78
2023/01/10 13:54:25;;;;;;;25.37;3.90;;;;;;;;;;5009061;28;20232;-78
2023/01/10 13:56:52;;;;;;;19.57;3.50;;;;;;;;;;5009117;28;20609;-78
2023/01/10 14:02:31;;;;;;;20.70;3.80;;;;;;;;;;5012968;28;20219;-77
2023/01/10 14:05:00;;;;;;;30.50;4.57;;;;;;;;;;5012399;28;20620;-77
2023/01/10 14:07:29;;;;;;;23.13;4.07;;;;;;;;;;5012764;28;20287;-78
2023/01/10 14:10:01;;;;;;;21.40;4.30;;;;;;;;;;5013088;28;20262;-78
2023/01/10 14:12:32;;;;;;;25.17;4.40;;;;;;;;;;5012876;28;20205;-79
2023/01/10 14:15:01;;;;;;;20.23;3.83;;;;;;;;;;5012658;28;20288;-78
2023/01/10 14:17:29;;;;;;;19.83;4.27;;;;;;;;;;5010081;28;20667;-78
2023/01/10 14:20:05;;;;;;;14.83;3.73;;;;;;;;;;5010428;28;20225;-77
2023/01/10 14:22:35;;;;;;;21.67;4.27;;;;;;;;;;5019312;28;20258;-77
2023/01/10 14:25:04;;;;;;;20.43;4.10;;;;;;;;;;5103218;28;20228;-77
2023/01/10 14:27:35;;;;;;;25.27;4.53;;;;;;;;;;5114523;28;20224;-77
2023/01/10 14:30:03;;;;;;;15.73;3.10;;;;;;;;;;5114868;27;20664;-77
2023/01/10 14:32:34;;;;;;;23.20;3.80;;;;;;;;;;5114934;28;20202;-77
2023/01/10 14:35:02;;;;;;;17.70;3.83;;;;;;;;;;5114371;28;20293;-77
2023/01/10 14:37:31;;;;;;;21.60;4.20;;;;;;;;;;5114722;28;20338;-76
2023/01/10 14:40:00;;;;;;;19.60;3.77;;;;;;;;;;5114582;28;20217;-77
2023/01/10 14:42:28;;;;;;;20.03;4.10;;;;;;;;;;5114406;28;20233;-77
2023/01/10 14:44:59;;;;;;;17.73;4.00;;;;;;;;;;5115052;28;20220;-78
2023/01/10 14:47:28;;;;;;;19.30;3.70;;;;;;;;;;5118981;27;20773;-77
2023/01/10 14:49:56;;;;;;;22.87;3.80;;;;;;;;;;5113979;28;20202;-77
2023/01/10 14:52:24;;;;;;;19.60;3.73;;;;;;;;;;5101457;28;20197;-77
2023/01/10 14:54:55;;;;;;;18.83;3.23;;;;;;;;;;5093908;28;20289;-77
2023/01/10 14:57:24;;;;;;;20.10;3.97;;;;;;;;;;5100663;28;20693;-77
2023/01/10 15:00:03;;;;;;;18.20;3.70;;;;;;;;;;5113541;28;20249;-76
2023/01/10 15:02:31;;;;;;;19.33;4.10;;;;;;;;;;5114014;27;20240;-77
2023/01/10 15:04:59;;;;;;;20.13;3.43;;;;;;;;;;5135134;27;20249;-77